Time;durP1;ratioP1;P1;durP2;ratioP2;P2;SDS_P1;SDS_P2;PMS_P1;PMS_P2;Temp;Humidity;BMP_temperature;BMP_pressure;BME280_temperature;BME280_humidity;BME280_pressure;Samples;Min_cycle;Max_cycle;Signal;HPM_P1;HPM_P2
2021/12/02 00:00:43;;;;;;;2.43;0.70;;;;;;;;;;5043335;28;20184;-74
2021/12/02 00:03:09;;;;;;;2.47;0.63;;;;;;;;;;5049109;28;20290;-75
2021/12/02 00:05:34;;;;;;;4.70;0.73;;;;;;;;;;5049515;28;20234;-74
2021/12/02 00:07:59;;;;;;;3.83;0.60;;;;;;;;;;5031944;28;20173;-76
2021/12/02 00:10:29;;;;;;;5.80;0.70;;;;;;;;;;5034472;28;21004;-74
2021/12/02 00:12:56;;;;;;;1.30;0.50;;;;;;;;;;5055428;28;20193;-72
2021/12/02 00:15:24;;;;;;;2.97;0.67;;;;;;;;;;5059213;28;20187;-74
2021/12/02 00:17:58;;;;;;;2.03;0.70;;;;;;;;;;5056322;28;20181;-76
2021/12/02 00:23:28;;;;;;;1.73;0.80;;;;;;;;;;5054997;28;20262;-73
2021/12/02 00:25:55;;;;;;;0.70;0.40;;;;;;;;;;5056767;28;20194;-76
2021/12/02 00:28:21;;;;;;;2.33;0.53;;;;;;;;;;5056127;28;20235;-73
2021/12/02 00:30:46;;;;;;;2.43;0.90;;;;;;;;;;5057108;28;20180;-74
2021/12/02 00:33:11;;;;;;;6.43;0.80;;;;;;;;;;5058193;28;20204;-76
2021/12/02 00:35:37;;;;;;;3.23;1.10;;;;;;;;;;5055949;28;20757;-74
2021/12/02 00:38:02;;;;;;;2.17;1.17;;;;;;;;;;5055215;28;20709;-75
2021/12/02 00:40:27;;;;;;;4.30;1.63;;;;;;;;;;5058111;28;20208;-72
2021/12/02 00:42:53;;;;;;;4.00;0.60;;;;;;;;;;5058491;28;20204;-73
2021/12/02 00:45:18;;;;;;;3.57;0.60;;;;;;;;;;5064105;28;20749;-73
2021/12/02 00:47:44;;;;;;;1.47;0.50;;;;;;;;;;5062993;28;20176;-73
2021/12/02 00:50:09;;;;;;;3.63;0.50;;;;;;;;;;5057238;28;20173;-73
2021/12/02 00:52:35;;;;;;;1.27;0.60;;;;;;;;;;5043773;28;20284;-75
2021/12/02 00:55:02;;;;;;;3.20;0.87;;;;;;;;;;5042137;28;20278;-75
2021/12/02 00:57:28;;;;;;;2.87;0.70;;;;;;;;;;5058227;28;20273;-75
2021/12/02 00:59:55;;;;;;;0.97;0.50;;;;;;;;;;5053824;28;20197;-74
2021/12/02 01:02:21;;;;;;;2.83;0.83;;;;;;;;;;5054612;28;20212;-73
2021/12/02 01:04:48;;;;;;;7.53;0.97;;;;;;;;;;5056046;28;20180;-74
2021/12/02 01:07:13;;;;;;;4.63;0.90;;;;;;;;;;5057464;28;20219;-73
2021/12/02 01:09:38;;;;;;;2.70;0.60;;;;;;;;;;5057772;28;20666;-73
2021/12/02 01:12:04;;;;;;;5.43;0.80;;;;;;;;;;5055766;28;20544;-74
2021/12/02 01:14:29;;;;;;;3.90;0.70;;;;;;;;;;5060207;28;20216;-73
2021/12/02 01:16:55;;;;;;;1.93;0.67;;;;;;;;;;5062770;28;20188;-74
2021/12/02 01:19:20;;;;;;;1.93;0.80;;;;;;;;;;5058043;28;20235;-74
2021/12/02 01:21:47;;;;;;;7.13;1.00;;;;;;;;;;5056060;28;20638;-74
2021/12/02 01:24:13;;;;;;;3.00;0.40;;;;;;;;;;5055486;28;20683;-74
2021/12/02 01:26:39;;;;;;;2.93;1.00;;;;;;;;;;5044646;28;20852;-74
2021/12/02 01:29:04;;;;;;;1.47;0.43;;;;;;;;;;5053958;28;20184;-73
2021/12/02 01:31:31;;;;;;;2.50;0.77;;;;;;;;;;5057162;28;20211;-74
2021/12/02 01:33:58;;;;;;;1.33;0.73;;;;;;;;;;5061742;28;20370;-75
2021/12/02 01:36:25;;;;;;;2.50;0.70;;;;;;;;;;5052523;28;20612;-74
2021/12/02 01:38:52;;;;;;;1.33;0.37;;;;;;;;;;5053244;28;20216;-75
2021/12/02 01:41:17;;;;;;;6.37;1.00;;;;;;;;;;5053702;28;20261;-75
2021/12/02 01:43:45;;;;;;;2.33;0.80;;;;;;;;;;5053580;28;20205;-75
2021/12/02 01:46:10;;;;;;;2.67;0.60;;;;;;;;;;5057314;28;20192;-76
2021/12/02 01:48:39;;;;;;;1.70;0.77;;;;;;;;;;5055585;28;20177;-73
2021/12/02 01:51:05;;;;;;;2.90;0.80;;;;;;;;;;5054821;28;20939;-73
2021/12/02 01:53:32;;;;;;;5.73;1.00;;;;;;;;;;5052127;28;20204;-75
2021/12/02 01:56:09;;;;;;;2.93;0.70;;;;;;;;;;5055548;28;20185;-73
2021/12/02 01:58:36;;;;;;;4.57;0.70;;;;;;;;;;5053332;28;20169;-75
2021/12/02 02:01:02;;;;;;;4.90;1.67;;;;;;;;;;5055472;28;20185;-74
2021/12/02 02:03:27;;;;;;;5.17;1.00;;;;;;;;;;5053361;28;20590;-76
2021/12/02 02:05:55;;;;;;;9.83;2.90;;;;;;;;;;5053033;28;20490;-73
2021/12/02 02:08:21;;;;;;;3.50;1.07;;;;;;;;;;5056580;28;20184;-75
2021/12/02 02:10:46;;;;;;;4.00;1.00;;;;;;;;;;5054366;28;20685;-74
2021/12/02 02:13:13;;;;;;;1.20;0.50;;;;;;;;;;5056896;28;20209;-76
2021/12/02 02:15:39;;;;;;;5.00;1.50;;;;;;;;;;5056487;28;20188;-74
2021/12/02 02:18:13;;;;;;;5.20;1.20;;;;;;;;;;5052098;28;20177;-73
2021/12/02 02:20:40;;;;;;;2.47;0.70;;;;;;;;;;5053061;28;20201;-74
2021/12/02 02:23:09;;;;;;;5.70;0.93;;;;;;;;;;5053926;28;20265;-76
2021/12/02 02:25:34;;;;;;;5.53;1.17;;;;;;;;;;5035845;28;20185;-74
2021/12/02 02:28:00;;;;;;;4.20;1.17;;;;;;;;;;5052992;28;20795;-73
2021/12/02 02:30:25;;;;;;;4.23;1.30;;;;;;;;;;5041211;28;20271;-74
2021/12/02 02:32:50;;;;;;;1.53;0.60;;;;;;;;;;5056331;28;20193;-73
2021/12/02 02:35:16;;;;;;;4.53;0.80;;;;;;;;;;5050430;28;20715;-74
2021/12/02 02:37:41;;;;;;;2.60;0.97;;;;;;;;;;5054237;28;20197;-73
2021/12/02 02:40:09;;;;;;;3.20;0.80;;;;;;;;;;5056255;28;20270;-73
2021/12/02 02:42:34;;;;;;;5.70;2.23;;;;;;;;;;5051872;28;20207;-75
2021/12/02 02:45:01;;;;;;;2.40;0.60;;;;;;;;;;5054845;28;20189;-73
2021/12/02 02:47:27;;;;;;;6.93;1.47;;;;;;;;;;5037246;28;20681;-74
2021/12/02 02:49:52;;;;;;;3.10;0.80;;;;;;;;;;5069227;28;20169;-74
2021/12/02 02:52:17;;;;;;;3.10;0.53;;;;;;;;;;5067428;28;20283;-74
2021/12/02 02:54:43;;;;;;;3.87;0.90;;;;;;;;;;5064922;28;20184;-75
2021/12/02 02:57:11;;;;;;;5.63;0.93;;;;;;;;;;5070217;28;20605;-74
2021/12/02 02:59:53;;;;;;;3.80;0.80;;;;;;;;;;5068045;28;20715;-74
2021/12/02 03:02:28;;;;;;;1.97;0.63;;;;;;;;;;5062970;28;20204;-74
2021/12/02 03:05:00;;;;;;;7.27;0.77;;;;;;;;;;5068783;28;20263;-74
2021/12/02 03:07:33;;;;;;;5.33;1.40;;;;;;;;;;5051551;28;20257;-74
2021/12/02 03:17:46;;;;;;;4.27;0.83;;;;;;;;;;5050928;28;20187;-76
2021/12/02 03:20:12;;;;;;;1.80;0.60;;;;;;;;;;5050139;28;20201;-74
2021/12/02 03:22:37;;;;;;;2.87;0.57;;;;;;;;;;5053872;28;20340;-73
2021/12/02 03:25:03;;;;;;;3.33;0.80;;;;;;;;;;5038709;28;20653;-74
2021/12/02 03:27:29;;;;;;;5.10;0.80;;;;;;;;;;5051208;28;20314;-74
2021/12/02 03:29:54;;;;;;;2.10;0.50;;;;;;;;;;5051991;28;20230;-75
2021/12/02 03:32:19;;;;;;;4.07;0.70;;;;;;;;;;5050274;28;20200;-75
2021/12/02 03:34:44;;;;;;;2.60;1.40;;;;;;;;;;5051593;28;20180;-73
2021/12/02 03:37:10;;;;;;;2.80;0.60;;;;;;;;;;5051239;28;20204;-74
2021/12/02 03:39:35;;;;;;;4.37;0.70;;;;;;;;;;5040484;28;20683;-74
2021/12/02 03:42:01;;;;;;;2.53;0.67;;;;;;;;;;5051976;28;20691;-76
2021/12/02 03:44:26;;;;;;;1.83;0.83;;;;;;;;;;5054467;28;20185;-74
2021/12/02 03:46:52;;;;;;;2.37;1.17;;;;;;;;;;5049806;28;20253;-74
2021/12/02 03:49:18;;;;;;;2.10;0.70;;;;;;;;;;5052619;28;20193;-73
2021/12/02 03:51:43;;;;;;;3.80;0.50;;;;;;;;;;5041132;28;20569;-74
2021/12/02 03:54:08;;;;;;;2.87;0.50;;;;;;;;;;5052078;28;20201;-75
2021/12/02 03:56:34;;;;;;;4.73;0.83;;;;;;;;;;5038373;28;20181;-74
2021/12/02 03:58:59;;;;;;;3.23;1.00;;;;;;;;;;5040717;28;20883;-74
2021/12/02 04:01:24;;;;;;;1.50;0.33;;;;;;;;;;5050634;28;20907;-73
2021/12/02 04:03:50;;;;;;;4.63;0.97;;;;;;;;;;5042369;28;20189;-74
2021/12/02 04:06:16;;;;;;;1.60;0.70;;;;;;;;;;5052393;28;20769;-73
2021/12/02 04:11:43;;;;;;;2.63;0.90;;;;;;;;;;5052087;28;20187;-75
2021/12/02 04:16:38;;;;;;;5.27;0.87;;;;;;;;;;5054333;28;20200;-75
2021/12/02 04:19:04;;;;;;;8.57;1.57;;;;;;;;;;5038255;28;20197;-74
2021/12/02 04:21:30;;;;;;;2.53;0.70;;;;;;;;;;5055252;28;20181;-74
2021/12/02 04:23:55;;;;;;;5.77;0.80;;;;;;;;;;5039596;28;20224;-74
2021/12/02 04:26:20;;;;;;;4.43;0.73;;;;;;;;;;5051225;28;20725;-74
2021/12/02 04:28:46;;;;;;;4.07;1.47;;;;;;;;;;5049690;28;20729;-74
2021/12/02 04:31:11;;;;;;;5.13;0.90;;;;;;;;;;5036534;28;21248;-75
2021/12/02 04:33:36;;;;;;;4.20;0.80;;;;;;;;;;5048709;28;20534;-74
2021/12/02 04:36:02;;;;;;;2.60;0.53;;;;;;;;;;5052989;28;20180;-75
2021/12/02 04:38:28;;;;;;;4.00;0.77;;;;;;;;;;5052254;28;20755;-74
2021/12/02 04:40:54;;;;;;;3.03;0.80;;;;;;;;;;5049552;28;20316;-73
2021/12/02 04:43:19;;;;;;;3.50;0.73;;;;;;;;;;5060734;28;20204;-74
2021/12/02 04:45:44;;;;;;;2.90;0.90;;;;;;;;;;5051333;28;20181;-76
2021/12/02 04:48:09;;;;;;;4.37;0.67;;;;;;;;;;5043161;28;20312;-75
2021/12/02 04:50:34;;;;;;;5.00;0.67;;;;;;;;;;5051327;28;20199;-74
2021/12/02 04:53:00;;;;;;;5.10;1.03;;;;;;;;;;5037411;28;20263;-75
2021/12/02 04:55:25;;;;;;;3.73;0.73;;;;;;;;;;5050385;28;20647;-73
2021/12/02 04:57:51;;;;;;;3.70;0.70;;;;;;;;;;5052326;28;20181;-74
2021/12/02 05:00:17;;;;;;;4.77;1.00;;;;;;;;;;5056676;28;20807;-73
2021/12/02 05:02:42;;;;;;;8.37;1.43;;;;;;;;;;5054520;28;20294;-73
2021/12/02 05:05:08;;;;;;;2.30;0.80;;;;;;;;;;5047384;28;20181;-73
2021/12/02 05:07:33;;;;;;;6.20;1.30;;;;;;;;;;5069843;28;20192;-73
2021/12/02 05:09:59;;;;;;;8.80;1.10;;;;;;;;;;5043469;28;20193;-73
2021/12/02 05:12:24;;;;;;;4.70;0.80;;;;;;;;;;5053825;28;20627;-74
2021/12/02 05:14:49;;;;;;;2.83;1.17;;;;;;;;;;5056649;28;20215;-74
2021/12/02 05:17:14;;;;;;;4.20;0.60;;;;;;;;;;5057765;28;20219;-75
2021/12/02 05:19:39;;;;;;;7.60;1.43;;;;;;;;;;5046645;28;20201;-74
2021/12/02 05:22:04;;;;;;;5.10;0.93;;;;;;;;;;5053410;28;20638;-75
2021/12/02 05:24:30;;;;;;;2.23;0.70;;;;;;;;;;5054390;28;20836;-75
2021/12/02 05:26:55;;;;;;;3.53;0.97;;;;;;;;;;5052625;28;20266;-73
2021/12/02 05:29:20;;;;;;;5.27;1.23;;;;;;;;;;5054868;28;20200;-73
2021/12/02 05:31:45;;;;;;;2.43;0.97;;;;;;;;;;5053058;28;20189;-76
2021/12/02 05:34:11;;;;;;;9.00;2.33;;;;;;;;;;5054343;28;20220;-73
2021/12/02 05:36:36;;;;;;;7.87;1.30;;;;;;;;;;5041567;28;20203;-74
2021/12/02 05:39:01;;;;;;;5.63;1.10;;;;;;;;;;5055035;28;20206;-73
2021/12/02 05:41:28;;;;;;;5.10;1.80;;;;;;;;;;5041038;28;20188;-73
2021/12/02 05:43:54;;;;;;;3.37;0.97;;;;;;;;;;5054176;28;20201;-73
2021/12/02 05:46:19;;;;;;;2.27;0.90;;;;;;;;;;5054515;28;20180;-74
2021/12/02 05:48:44;;;;;;;4.50;1.50;;;;;;;;;;5054645;28;20264;-74
2021/12/02 05:51:09;;;;;;;9.23;0.90;;;;;;;;;;5056492;28;20216;-75
2021/12/02 05:53:34;;;;;;;3.20;1.63;;;;;;;;;;5036363;28;20295;-74
2021/12/02 05:55:59;;;;;;;5.67;1.20;;;;;;;;;;5055546;28;20195;-73
2021/12/02 05:58:25;;;;;;;2.90;0.90;;;;;;;;;;5054370;28;20825;-73
2021/12/02 06:00:50;;;;;;;1.87;1.30;;;;;;;;;;5055637;28;20287;-75
2021/12/02 06:03:15;;;;;;;4.57;0.83;;;;;;;;;;5051878;28;20574;-74
2021/12/02 06:05:42;;;;;;;2.27;1.17;;;;;;;;;;5059247;28;20174;-75
2021/12/02 06:08:08;;;;;;;2.87;1.23;;;;;;;;;;5053678;28;20180;-74
2021/12/02 06:10:33;;;;;;;4.90;1.17;;;;;;;;;;5051670;28;20176;-73
2021/12/02 06:12:58;;;;;;;3.40;1.00;;;;;;;;;;5051315;28;20192;-76
2021/12/02 06:15:24;;;;;;;4.30;1.80;;;;;;;;;;5056248;28;20598;-73
2021/12/02 06:17:49;;;;;;;4.43;2.03;;;;;;;;;;5052759;28;20391;-72
2021/12/02 06:20:17;;;;;;;7.00;0.97;;;;;;;;;;5053616;28;20197;-75
2021/12/02 06:22:42;;;;;;;2.03;0.70;;;;;;;;;;5052861;28;20205;-75
2021/12/02 06:27:39;;;;;;;4.97;1.07;;;;;;;;;;5049298;28;20278;-73
2021/12/02 06:30:04;;;;;;;6.90;1.67;;;;;;;;;;5053850;28;20181;-73
2021/12/02 06:32:29;;;;;;;2.23;0.90;;;;;;;;;;5051618;28;21754;-73
2021/12/02 06:34:55;;;;;;;5.67;0.97;;;;;;;;;;5057038;28;20222;-74
2021/12/02 06:37:21;;;;;;;5.00;0.90;;;;;;;;;;5053907;28;20315;-73
2021/12/02 06:39:46;;;;;;;4.43;0.70;;;;;;;;;;5034213;28;20247;-74
2021/12/02 06:42:11;;;;;;;2.80;0.90;;;;;;;;;;5052111;28;20177;-73
2021/12/02 06:44:36;;;;;;;2.23;0.70;;;;;;;;;;5051650;28;20193;-73
2021/12/02 06:47:02;;;;;;;3.30;0.87;;;;;;;;;;5053403;28;20181;-75
2021/12/02 06:49:27;;;;;;;3.73;0.90;;;;;;;;;;5039518;28;20776;-75
2021/12/02 06:51:53;;;;;;;1.30;0.77;;;;;;;;;;5041564;28;20272;-75
2021/12/02 06:54:18;;;;;;;2.90;0.60;;;;;;;;;;5051372;28;20275;-74
2021/12/02 06:56:43;;;;;;;5.97;1.73;;;;;;;;;;5052632;28;20184;-75
2021/12/02 06:59:08;;;;;;;5.20;2.00;;;;;;;;;;5052522;28;21686;-75
2021/12/02 07:01:34;;;;;;;3.03;0.70;;;;;;;;;;5051497;28;20216;-75
2021/12/02 07:03:59;;;;;;;3.90;1.20;;;;;;;;;;5048657;28;20872;-74
2021/12/02 07:06:25;;;;;;;2.93;0.70;;;;;;;;;;5044164;28;20161;-74
2021/12/02 07:08:50;;;;;;;2.13;1.00;;;;;;;;;;5051061;28;20642;-75
2021/12/02 07:11:15;;;;;;;3.60;1.43;;;;;;;;;;5049255;28;20192;-73
2021/12/02 07:13:40;;;;;;;2.97;0.70;;;;;;;;;;5049791;28;20240;-74
2021/12/02 07:16:06;;;;;;;2.20;0.70;;;;;;;;;;5055987;28;20177;-73
2021/12/02 07:18:36;;;;;;;2.97;0.90;;;;;;;;;;5050566;28;20527;-75
2021/12/02 07:21:01;;;;;;;2.63;0.80;;;;;;;;;;5049745;28;20283;-75
2021/12/02 07:23:26;;;;;;;2.90;1.00;;;;;;;;;;5050553;28;20210;-74
2021/12/02 07:25:52;;;;;;;2.23;0.73;;;;;;;;;;5050712;28;21252;-74
2021/12/02 07:28:17;;;;;;;6.43;1.20;;;;;;;;;;5051594;28;20655;-75
2021/12/02 07:30:43;;;;;;;2.80;1.10;;;;;;;;;;5050911;28;20861;-73
2021/12/02 07:33:09;;;;;;;3.53;0.93;;;;;;;;;;5048453;28;20231;-74
2021/12/02 07:35:35;;;;;;;2.17;0.80;;;;;;;;;;5050933;28;20204;-74
2021/12/02 07:38:01;;;;;;;5.70;1.50;;;;;;;;;;5048176;28;20637;-75
2021/12/02 07:40:27;;;;;;;10.20;1.13;;;;;;;;;;5049403;28;21188;-74
2021/12/02 07:42:53;;;;;;;5.97;1.33;;;;;;;;;;5050130;28;20213;-74
2021/12/02 07:45:19;;;;;;;6.53;1.50;;;;;;;;;;5051674;28;20200;-74
2021/12/02 07:47:45;;;;;;;2.17;1.20;;;;;;;;;;5050040;28;20239;-73
2021/12/02 07:50:11;;;;;;;6.90;1.03;;;;;;;;;;5050313;28;20185;-73
2021/12/02 07:52:39;;;;;;;8.33;1.70;;;;;;;;;;5048118;28;20201;-73
2021/12/02 07:55:08;;;;;;;5.47;1.23;;;;;;;;;;5039021;28;20189;-74
2021/12/02 07:57:34;;;;;;;2.83;0.70;;;;;;;;;;5049646;28;20313;-73
2021/12/02 08:00:00;;;;;;;2.47;0.70;;;;;;;;;;5049169;28;21892;-74
2021/12/02 08:02:25;;;;;;;6.00;1.97;;;;;;;;;;5052888;28;20192;-73
2021/12/02 08:04:51;;;;;;;2.43;0.80;;;;;;;;;;5038674;28;20662;-73
2021/12/02 08:07:16;;;;;;;4.43;1.10;;;;;;;;;;5053495;28;20181;-75
2021/12/02 08:09:41;;;;;;;5.27;1.20;;;;;;;;;;5054264;28;20187;-75
2021/12/02 08:12:07;;;;;;;1.87;0.93;;;;;;;;;;5055262;28;20183;-75
2021/12/02 08:14:32;;;;;;;3.10;0.87;;;;;;;;;;5050684;28;20254;-74
2021/12/02 08:16:57;;;;;;;2.07;1.03;;;;;;;;;;5043788;28;20712;-75
2021/12/02 08:19:22;;;;;;;3.33;0.80;;;;;;;;;;5047254;28;20259;-75
2021/12/02 08:21:47;;;;;;;4.73;1.00;;;;;;;;;;5050134;28;20557;-75
2021/12/02 08:24:13;;;;;;;1.90;0.63;;;;;;;;;;5075875;22;20613;-73
2021/12/02 08:26:38;;;;;;;2.03;0.73;;;;;;;;;;5071251;28;20561;-72
2021/12/02 08:29:04;;;;;;;3.30;0.60;;;;;;;;;;5070194;28;20288;-73
2021/12/02 08:31:30;;;;;;;2.53;0.70;;;;;;;;;;5070905;28;20664;-72
2021/12/02 08:33:55;;;;;;;3.80;0.70;;;;;;;;;;5071113;28;20204;-73
2021/12/02 08:36:24;;;;;;;1.10;0.60;;;;;;;;;;5074588;28;20188;-72
2021/12/02 08:38:49;;;;;;;2.53;0.70;;;;;;;;;;5071598;28;20180;-72
2021/12/02 08:41:18;;;;;;;4.37;0.87;;;;;;;;;;5074438;28;20191;-73
2021/12/02 08:43:43;;;;;;;3.63;1.10;;;;;;;;;;5072617;28;20721;-72
2021/12/02 08:46:09;;;;;;;6.53;2.80;;;;;;;;;;5079045;28;20187;-72
2021/12/02 08:48:34;;;;;;;3.23;0.70;;;;;;;;;;5073578;28;20187;-72
2021/12/02 08:50:59;;;;;;;2.03;0.70;;;;;;;;;;5073743;28;20235;-73
2021/12/02 08:53:24;;;;;;;2.67;0.70;;;;;;;;;;5073737;28;20204;-73
2021/12/02 08:55:49;;;;;;;1.73;1.17;;;;;;;;;;5058173;28;20184;-73
2021/12/02 08:58:15;;;;;;;5.43;0.87;;;;;;;;;;5076311;28;20184;-74
2021/12/02 09:00:40;;;;;;;3.27;0.63;;;;;;;;;;5063877;28;20751;-73
2021/12/02 09:03:07;;;;;;;1.03;0.60;;;;;;;;;;5058070;28;20196;-73
2021/12/02 09:05:33;;;;;;;1.73;0.50;;;;;;;;;;5061034;28;20176;-73
2021/12/02 09:07:58;;;;;;;2.03;0.90;;;;;;;;;;5076136;28;20603;-73
2021/12/02 09:10:25;;;;;;;1.23;0.43;;;;;;;;;;5077081;28;20194;-73
2021/12/02 09:12:51;;;;;;;0.93;0.60;;;;;;;;;;5075429;28;20211;-73
2021/12/02 09:15:17;;;;;;;1.70;0.60;;;;;;;;;;5076991;28;20185;-73
2021/12/02 09:17:42;;;;;;;2.60;0.70;;;;;;;;;;5074731;28;20172;-73
2021/12/02 09:20:09;;;;;;;0.80;0.60;;;;;;;;;;5073375;28;20231;-73
2021/12/02 09:22:34;;;;;;;1.77;0.93;;;;;;;;;;5074446;28;20231;-72
2021/12/02 09:24:59;;;;;;;1.40;0.80;;;;;;;;;;5074185;28;20188;-73
2021/12/02 09:27:24;;;;;;;2.23;0.60;;;;;;;;;;5075030;28;20626;-74
2021/12/02 09:29:49;;;;;;;1.63;1.00;;;;;;;;;;5060130;28;20188;-72
2021/12/02 09:32:15;;;;;;;1.23;0.90;;;;;;;;;;5075460;28;20184;-72
2021/12/02 09:34:40;;;;;;;1.50;0.90;;;;;;;;;;5072211;28;20203;-73
2021/12/02 09:37:05;;;;;;;3.90;0.67;;;;;;;;;;5073452;28;20543;-73
2021/12/02 09:39:32;;;;;;;1.17;0.60;;;;;;;;;;5073872;28;20203;-73
2021/12/02 09:41:58;;;;;;;2.83;0.70;;;;;;;;;;5075262;28;20214;-73
2021/12/02 09:44:23;;;;;;;4.37;1.87;;;;;;;;;;5075289;28;20242;-73
2021/12/02 09:46:48;;;;;;;0.63;0.53;;;;;;;;;;5077174;28;20168;-73
2021/12/02 09:49:15;;;;;;;3.87;0.60;;;;;;;;;;5073763;28;20829;-73
2021/12/02 09:54:14;;;;;;;2.23;0.50;;;;;;;;;;5072325;28;20232;-72
2021/12/02 09:56:42;;;;;;;5.30;1.03;;;;;;;;;;5072374;28;20192;-74
2021/12/02 09:59:11;;;;;;;3.80;1.40;;;;;;;;;;5057976;28;20681;-73
2021/12/02 10:01:46;;;;;;;1.70;0.70;;;;;;;;;;5058564;28;20726;-73
2021/12/02 10:04:13;;;;;;;0.60;0.57;;;;;;;;;;5071740;28;20248;-73
2021/12/02 10:06:40;;;;;;;3.40;0.70;;;;;;;;;;5058975;28;20227;-73
2021/12/02 10:09:15;;;;;;;1.20;0.40;;;;;;;;;;5082560;28;20180;-73
2021/12/02 10:14:11;;;;;;;0.73;0.50;;;;;;;;;;5087964;28;20683;-72
2021/12/02 10:16:40;;;;;;;2.33;0.47;;;;;;;;;;5086772;28;20193;-72
2021/12/02 10:19:14;;;;;;;3.20;0.43;;;;;;;;;;5089578;28;20303;-72
2021/12/02 10:21:44;;;;;;;1.23;0.60;;;;;;;;;;5062767;28;20175;-72
2021/12/02 10:24:14;;;;;;;1.80;0.53;;;;;;;;;;5090029;28;20218;-73
2021/12/02 10:27:02;;;;;;;4.17;0.63;;;;;;;;;;5089489;28;20209;-73
2021/12/02 10:29:29;;;;;;;1.13;0.63;;;;;;;;;;5069906;28;20184;-72
2021/12/02 10:32:05;;;;;;;2.60;0.80;;;;;;;;;;5090536;28;20685;-73
2021/12/02 10:34:30;;;;;;;4.37;0.83;;;;;;;;;;5087977;28;20668;-72
2021/12/02 10:37:07;;;;;;;0.80;0.33;;;;;;;;;;5089531;28;20267;-72
2021/12/02 10:39:32;;;;;;;0.73;0.40;;;;;;;;;;5080020;28;20251;-73
2021/12/02 10:42:00;;;;;;;0.30;0.30;;;;;;;;;;5078452;28;20336;-72
2021/12/02 10:44:30;;;;;;;3.97;0.50;;;;;;;;;;5070685;28;20203;-73
2021/12/02 10:47:07;;;;;;;0.97;0.50;;;;;;;;;;5081778;28;20184;-73
2021/12/02 10:49:42;;;;;;;2.50;0.77;;;;;;;;;;5076058;28;20653;-73
2021/12/02 10:52:25;;;;;;;2.47;1.60;;;;;;;;;;5071493;28;20573;-73
2021/12/02 10:55:10;;;;;;;3.33;1.33;;;;;;;;;;5073300;28;20218;-74
2021/12/02 10:57:36;;;;;;;1.93;0.87;;;;;;;;;;5060129;28;20192;-74
2021/12/02 11:00:02;;;;;;;1.97;0.97;;;;;;;;;;5071046;28;20208;-73
2021/12/02 11:02:30;;;;;;;1.03;0.70;;;;;;;;;;5071452;28;20195;-73
2021/12/02 11:05:02;;;;;;;4.87;0.90;;;;;;;;;;5070400;28;20175;-73
2021/12/02 11:07:35;;;;;;;1.53;0.60;;;;;;;;;;5071339;28;20188;-73
2021/12/02 11:10:04;;;;;;;2.30;0.73;;;;;;;;;;5070137;28;20395;-72
2021/12/02 11:12:33;;;;;;;2.03;0.70;;;;;;;;;;5071884;28;20300;-73
2021/12/02 11:15:22;;;;;;;1.43;0.70;;;;;;;;;;5058500;28;20245;-72
2021/12/02 11:17:49;;;;;;;1.73;0.97;;;;;;;;;;5058379;28;20283;-74
2021/12/02 11:20:16;;;;;;;1.63;0.83;;;;;;;;;;5071242;28;20208;-73
2021/12/02 11:22:41;;;;;;;1.70;0.80;;;;;;;;;;5070942;28;20187;-73
2021/12/02 11:25:10;;;;;;;1.90;0.87;;;;;;;;;;5069411;28;20184;-73
2021/12/02 11:27:35;;;;;;;1.97;0.67;;;;;;;;;;5073193;28;20184;-72
2021/12/02 11:30:03;;;;;;;1.60;0.80;;;;;;;;;;5069952;28;20191;-73
2021/12/02 11:32:51;;;;;;;5.00;1.20;;;;;;;;;;5069337;28;20177;-73
2021/12/02 11:35:22;;;;;;;1.70;0.70;;;;;;;;;;5048017;28;20741;-72
2021/12/02 11:37:52;;;;;;;2.47;1.30;;;;;;;;;;5057352;28;20276;-73
2021/12/02 11:40:17;;;;;;;2.33;0.90;;;;;;;;;;5072354;28;20558;-72
2021/12/02 11:42:46;;;;;;;1.63;1.10;;;;;;;;;;5070614;28;20176;-73
2021/12/02 11:45:13;;;;;;;2.40;1.00;;;;;;;;;;5072961;28;20176;-73
2021/12/02 11:47:39;;;;;;;4.73;1.50;;;;;;;;;;5070473;28;20597;-72
2021/12/02 11:50:07;;;;;;;5.43;1.37;;;;;;;;;;5069275;28;20210;-72
2021/12/02 11:52:34;;;;;;;5.73;1.43;;;;;;;;;;5051915;28;20197;-72
2021/12/02 11:55:00;;;;;;;4.73;1.90;;;;;;;;;;5070774;28;21535;-73
2021/12/02 11:57:27;;;;;;;2.73;1.70;;;;;;;;;;5067796;28;20288;-72
2021/12/02 11:59:52;;;;;;;3.17;1.30;;;;;;;;;;5069838;28;20208;-72
2021/12/02 12:02:17;;;;;;;2.73;1.50;;;;;;;;;;5069533;28;20180;-72
2021/12/02 12:04:52;;;;;;;3.10;1.30;;;;;;;;;;5069498;28;20226;-73
2021/12/02 12:07:17;;;;;;;1.50;1.40;;;;;;;;;;5058321;28;20774;-73
2021/12/02 12:09:43;;;;;;;6.30;1.67;;;;;;;;;;5071990;28;20184;-73
2021/12/02 12:12:10;;;;;;;3.50;1.23;;;;;;;;;;5070132;28;20233;-74
2021/12/02 12:14:40;;;;;;;3.87;1.40;;;;;;;;;;5072511;28;20275;-72
2021/12/02 12:17:07;;;;;;;2.90;1.20;;;;;;;;;;5072457;28;20180;-73
2021/12/02 12:19:37;;;;;;;1.20;1.10;;;;;;;;;;5070013;28;20235;-72
2021/12/02 12:22:04;;;;;;;3.73;1.23;;;;;;;;;;5054784;28;20177;-71
2021/12/02 12:24:48;;;;;;;5.00;1.10;;;;;;;;;;5070858;28;20297;-72
2021/12/02 12:27:13;;;;;;;3.30;0.80;;;;;;;;;;5070699;28;20180;-73
2021/12/02 12:29:38;;;;;;;1.70;0.93;;;;;;;;;;5069927;28;20203;-72
2021/12/02 12:32:11;;;;;;;1.17;0.83;;;;;;;;;;5070030;28;20176;-72
2021/12/02 12:37:21;;;;;;;1.03;0.80;;;;;;;;;;5069357;28;20625;-72
2021/12/02 12:40:02;;;;;;;3.60;0.90;;;;;;;;;;5067887;28;20334;-73
2021/12/02 12:42:27;;;;;;;2.97;1.17;;;;;;;;;;5070458;28;20181;-72
2021/12/02 12:44:53;;;;;;;1.50;0.80;;;;;;;;;;5072743;28;20181;-73
2021/12/02 12:47:20;;;;;;;3.67;0.93;;;;;;;;;;5074100;28;20196;-72
2021/12/02 12:49:46;;;;;;;4.10;1.67;;;;;;;;;;5070321;28;20263;-72
2021/12/02 12:52:15;;;;;;;1.27;0.90;;;;;;;;;;5060458;28;20233;-72
2021/12/02 12:54:41;;;;;;;2.03;0.73;;;;;;;;;;5070912;28;20200;-72
2021/12/02 12:57:07;;;;;;;2.00;0.80;;;;;;;;;;5071016;28;20176;-73
2021/12/02 12:59:54;;;;;;;2.30;1.20;;;;;;;;;;5070987;28;20961;-73
2021/12/02 13:02:20;;;;;;;2.80;0.83;;;;;;;;;;5052091;28;20180;-72
2021/12/02 13:04:54;;;;;;;2.20;0.53;;;;;;;;;;5071475;28;20238;-71
2021/12/02 13:07:20;;;;;;;2.13;0.70;;;;;;;;;;5071023;28;20547;-73
2021/12/02 13:10:00;;;;;;;3.23;0.67;;;;;;;;;;5070891;28;20550;-72
2021/12/02 13:12:45;;;;;;;1.73;0.40;;;;;;;;;;5071564;28;20195;-73
2021/12/02 13:15:10;;;;;;;2.57;0.63;;;;;;;;;;5075132;28;20180;-71
2021/12/02 13:17:49;;;;;;;1.77;0.70;;;;;;;;;;5070457;28;20258;-71
2021/12/02 13:20:14;;;;;;;1.00;0.50;;;;;;;;;;5070514;28;20200;-71
2021/12/02 13:22:39;;;;;;;3.90;0.80;;;;;;;;;;5075166;28;20189;-72
2021/12/02 13:25:23;;;;;;;3.27;0.70;;;;;;;;;;5076765;28;20189;-74
2021/12/02 13:27:49;;;;;;;3.27;0.60;;;;;;;;;;5076535;28;20562;-73
2021/12/02 13:30:14;;;;;;;1.23;0.47;;;;;;;;;;5073912;28;20195;-72
2021/12/02 13:32:46;;;;;;;1.93;0.60;;;;;;;;;;5074277;28;20190;-72
2021/12/02 13:35:22;;;;;;;0.97;0.60;;;;;;;;;;5075375;28;20183;-72
2021/12/02 13:37:57;;;;;;;2.67;0.50;;;;;;;;;;5057083;28;20813;-71
2021/12/02 13:40:23;;;;;;;1.50;0.60;;;;;;;;;;5074165;28;20208;-70
2021/12/02 13:42:57;;;;;;;1.33;0.77;;;;;;;;;;5071431;28;20574;-71
2021/12/02 13:45:23;;;;;;;2.27;0.60;;;;;;;;;;5076796;28;20172;-71
2021/12/02 13:47:49;;;;;;;2.87;0.60;;;;;;;;;;5073384;28;20180;-71
2021/12/02 13:50:19;;;;;;;3.37;1.03;;;;;;;;;;5052316;28;20665;-70
2021/12/02 13:52:51;;;;;;;1.83;0.50;;;;;;;;;;5063124;28;20184;-70
2021/12/02 13:55:35;;;;;;;2.90;0.80;;;;;;;;;;5074400;28;20185;-71
2021/12/02 13:58:06;;;;;;;1.03;0.60;;;;;;;;;;5074121;28;20206;-72
2021/12/02 14:00:35;;;;;;;1.03;0.70;;;;;;;;;;5059776;28;20207;-70
2021/12/02 14:03:19;;;;;;;2.40;0.60;;;;;;;;;;5077097;28;20192;-72
2021/12/02 14:05:49;;;;;;;1.00;0.80;;;;;;;;;;5077944;28;20187;-70
2021/12/02 14:08:16;;;;;;;1.23;0.67;;;;;;;;;;5073845;28;20265;-71
2021/12/02 14:10:41;;;;;;;2.80;0.73;;;;;;;;;;5075728;28;20263;-71
2021/12/02 14:13:08;;;;;;;5.10;0.90;;;;;;;;;;5076469;28;20204;-72
2021/12/02 14:15:38;;;;;;;4.90;1.20;;;;;;;;;;5076636;28;20260;-72
2021/12/02 14:18:08;;;;;;;3.23;0.83;;;;;;;;;;5073660;28;20695;-71
2021/12/02 14:20:51;;;;;;;3.17;1.13;;;;;;;;;;5073150;28;20204;-71
2021/12/02 14:23:17;;;;;;;3.57;0.80;;;;;;;;;;5082672;22;20231;-75
2021/12/02 14:25:45;;;;;;;2.83;1.00;;;;;;;;;;5052689;28;20218;-75
2021/12/02 14:28:13;;;;;;;3.73;1.07;;;;;;;;;;5053656;28;20193;-75
2021/12/02 14:30:42;;;;;;;2.40;1.33;;;;;;;;;;5053770;28;20213;-76
2021/12/02 14:33:09;;;;;;;4.37;1.07;;;;;;;;;;5051749;28;20215;-75
2021/12/02 14:35:42;;;;;;;1.80;0.77;;;;;;;;;;5051557;28;20185;-74
2021/12/02 14:38:21;;;;;;;1.83;0.50;;;;;;;;;;5049363;28;20189;-74
2021/12/02 14:40:47;;;;;;;2.00;0.97;;;;;;;;;;5060594;28;20207;-76
2021/12/02 14:43:23;;;;;;;0.47;0.47;;;;;;;;;;5053043;28;20586;-74
2021/12/02 14:45:50;;;;;;;1.70;0.60;;;;;;;;;;5053381;28;20234;-74
2021/12/02 14:48:19;;;;;;;1.00;0.50;;;;;;;;;;5053768;28;20189;-75
2021/12/02 14:50:44;;;;;;;1.30;0.40;;;;;;;;;;5052037;28;20235;-76
2021/12/02 14:53:29;;;;;;;3.73;0.50;;;;;;;;;;5052666;28;20225;-77
2021/12/02 14:55:54;;;;;;;2.23;0.40;;;;;;;;;;5054826;28;20199;-75
2021/12/02 14:58:19;;;;;;;1.70;0.53;;;;;;;;;;5053018;28;20627;-74
2021/12/02 15:00:44;;;;;;;3.70;1.17;;;;;;;;;;5035470;28;20266;-76
2021/12/02 15:03:10;;;;;;;2.40;0.83;;;;;;;;;;5053569;28;20224;-73
2021/12/02 15:05:35;;;;;;;2.30;0.50;;;;;;;;;;5051114;28;20768;-74
2021/12/02 15:08:04;;;;;;;4.03;0.67;;;;;;;;;;5052450;28;20185;-74
2021/12/02 15:10:34;;;;;;;2.53;0.77;;;;;;;;;;5051902;28;20412;-77